createdAt,value
2023-04-16T00:00:03.381Z,8.32
2023-04-16T00:02:38.796Z,8.28
2023-04-16T00:05:06.983Z,8.43
2023-04-16T00:07:34.463Z,8.59
2023-04-16T00:10:02.107Z,8.49
2023-04-16T00:12:29.650Z,8.38
2023-04-16T00:14:57.213Z,8.22
2023-04-16T00:17:25.211Z,8.04
2023-04-16T00:19:53.095Z,7.90
2023-04-16T00:22:20.555Z,7.83
2023-04-16T00:24:47.987Z,7.78
2023-04-16T00:27:15.484Z,7.69
2023-04-16T00:29:43.120Z,7.50
2023-04-16T00:32:10.572Z,7.38
2023-04-16T00:34:38.036Z,7.29
2023-04-16T00:37:05.455Z,7.22
2023-04-16T00:39:33.419Z,7.15
2023-04-16T00:42:01.002Z,7.04
2023-04-16T00:44:29.361Z,6.99
2023-04-16T00:46:57.826Z,7.02
2023-04-16T00:49:25.652Z,7.02
2023-04-16T00:51:53.170Z,7.02
2023-04-16T00:54:21.220Z,7.02
2023-04-16T00:56:49.483Z,6.94
2023-04-16T00:59:17.027Z,6.92
2023-04-16T01:01:44.626Z,6.84
2023-04-16T01:04:12.482Z,6.85
2023-04-16T01:06:40.082Z,6.81
2023-04-16T01:09:07.869Z,6.78
2023-04-16T01:11:37.150Z,6.76
2023-04-16T01:14:04.648Z,6.73
2023-04-16T01:16:33.361Z,6.73
2023-04-16T01:19:00.928Z,6.73
2023-04-16T01:21:28.698Z,6.71
2023-04-16T01:23:56.187Z,6.67
2023-04-16T01:26:23.712Z,6.66
2023-04-16T01:28:51.322Z,6.66
2023-04-16T01:31:18.845Z,6.63
2023-04-16T01:33:53.836Z,6.63
2023-04-16T01:36:21.344Z,6.58
2023-04-16T01:38:49.820Z,6.58
2023-04-16T01:41:17.308Z,6.60
2023-04-16T01:43:44.767Z,6.64
2023-04-16T01:46:20.489Z,6.67
2023-04-16T01:48:48.714Z,6.70
2023-04-16T01:51:16.210Z,6.71
2023-04-16T01:53:43.625Z,6.70
2023-04-16T01:56:11.101Z,6.67
2023-04-16T01:58:38.692Z,6.66
2023-04-16T02:01:06.554Z,6.64
2023-04-16T02:03:35.290Z,6.69
2023-04-16T02:06:04.876Z,6.71
2023-04-16T02:08:32.834Z,6.73
2023-04-16T02:11:01.453Z,6.71
2023-04-16T02:13:29.373Z,6.73
2023-04-16T02:15:56.965Z,6.80
2023-04-16T02:18:36.007Z,6.78
2023-04-16T02:21:03.951Z,6.80
2023-04-16T02:23:31.603Z,6.80
2023-04-16T02:26:01.097Z,6.78
2023-04-16T02:28:29.462Z,6.80
2023-04-16T02:30:57.639Z,6.83
2023-04-16T02:33:26.784Z,6.85
2023-04-16T02:36:03.668Z,6.94
2023-04-16T02:38:31.238Z,7.02
2023-04-16T02:40:59.455Z,7.08
2023-04-16T02:43:27.004Z,7.09
2023-04-16T02:45:54.460Z,7.11
2023-04-16T02:48:21.954Z,7.08
2023-04-16T02:50:49.434Z,7.11
2023-04-16T02:53:16.958Z,7.08
2023-04-16T02:55:52.898Z,7.05
2023-04-16T02:58:22.162Z,7.02
2023-04-16T03:00:50.262Z,7.04
2023-04-16T03:03:18.178Z,7.04
2023-04-16T03:05:45.887Z,7.04
2023-04-16T03:08:13.450Z,6.99
2023-04-16T03:10:41.787Z,6.94
2023-04-16T03:13:09.247Z,6.91
2023-04-16T03:15:36.909Z,6.90
2023-04-16T03:18:04.490Z,6.90
2023-04-16T03:20:32.261Z,6.92
2023-04-16T03:22:59.793Z,6.97
2023-04-16T03:25:27.412Z,7.02
2023-04-16T03:27:54.880Z,7.05
2023-04-16T03:30:22.393Z,6.87
2023-04-16T03:32:49.903Z,6.70
2023-04-16T03:35:17.547Z,6.46
2023-04-16T03:37:45.552Z,6.23
2023-04-16T03:40:13.873Z,6.11
2023-04-16T03:42:41.860Z,5.94
2023-04-16T03:45:09.884Z,5.81
2023-04-16T03:47:38.896Z,5.70
2023-04-16T03:50:06.967Z,5.65
2023-04-16T03:52:34.765Z,5.61
2023-04-16T03:55:03.958Z,5.67
2023-04-16T03:57:32.349Z,5.79
2023-04-16T04:00:09.389Z,5.97
2023-04-16T04:02:47.798Z,6.15
2023-04-16T04:05:19.502Z,6.32
2023-04-16T04:07:48.342Z,6.49
2023-04-16T04:10:16.418Z,6.67
2023-04-16T04:12:44.223Z,6.80
2023-04-16T04:15:12.208Z,6.87
2023-04-16T04:17:39.799Z,6.87
2023-04-16T04:20:07.985Z,6.95
2023-04-16T04:22:37.069Z,7.01
2023-04-16T04:25:04.999Z,7.09
2023-04-16T04:27:33.606Z,7.22
2023-04-16T04:30:01.228Z,7.38
2023-04-16T04:32:29.170Z,7.47
2023-04-16T04:34:56.627Z,7.52
2023-04-16T04:37:24.114Z,7.53
2023-04-16T04:39:51.642Z,7.53
2023-04-16T04:42:21.106Z,7.45
2023-04-16T04:44:48.884Z,7.43
2023-04-16T04:47:16.463Z,7.45
2023-04-16T04:49:44.052Z,7.50
2023-04-16T04:52:11.902Z,7.59
2023-04-16T04:54:41.841Z,7.65
2023-04-16T04:57:09.518Z,7.62
2023-04-16T04:59:37.019Z,7.62
2023-04-16T05:02:04.722Z,7.67
2023-04-16T05:04:32.279Z,7.71
2023-04-16T05:06:59.744Z,7.71
2023-04-16T05:09:27.353Z,7.71
2023-04-16T05:11:54.887Z,7.71
2023-04-16T05:14:22.384Z,7.74
2023-04-16T05:16:50.324Z,7.76
2023-04-16T05:19:17.871Z,7.77
2023-04-16T05:21:45.451Z,7.78
2023-04-16T05:24:14.787Z,7.84
2023-04-16T05:26:42.630Z,7.88
2023-04-16T05:29:10.308Z,7.88
2023-04-16T05:31:38.475Z,7.91
2023-04-16T05:34:05.979Z,7.91
2023-04-16T05:36:33.506Z,7.94
2023-04-16T05:39:01.117Z,7.97
2023-04-16T05:41:28.648Z,8.04
2023-04-16T05:43:56.260Z,8.14
2023-04-16T05:46:23.859Z,8.26
2023-04-16T05:48:51.508Z,8.43
2023-04-16T05:51:19.049Z,8.59
2023-04-16T05:53:46.553Z,8.85
2023-04-16T05:56:14.019Z,9.15
2023-04-16T05:58:41.524Z,9.60
2023-04-16T06:01:09.023Z,10.06
2023-04-16T06:03:36.674Z,10.55
2023-04-16T06:06:04.494Z,11.20
2023-04-16T06:08:31.931Z,11.79
2023-04-16T06:10:59.460Z,12.46
2023-04-16T06:13:26.892Z,13.06
2023-04-16T06:15:54.503Z,13.53
2023-04-16T06:18:22.009Z,13.92
2023-04-16T06:20:49.439Z,13.91
2023-04-16T06:23:17.115Z,13.94
2023-04-16T06:25:44.604Z,14.08
2023-04-16T06:28:12.060Z,13.94
2023-04-16T06:30:40.032Z,13.91
2023-04-16T06:33:07.614Z,13.67
2023-04-16T06:35:35.898Z,13.27
2023-04-16T06:38:03.251Z,13.19
2023-04-16T06:40:30.807Z,13.26
2023-04-16T06:42:58.435Z,13.39
2023-04-16T06:45:25.983Z,13.56
2023-04-16T06:47:53.519Z,13.95
2023-04-16T06:50:22.274Z,14.15
2023-04-16T06:52:49.807Z,14.01
2023-04-16T06:55:17.588Z,14.17
2023-04-16T06:57:45.391Z,14.36
2023-04-16T07:00:13.473Z,14.59
2023-04-16T07:02:41.398Z,14.75
2023-04-16T07:05:09.160Z,15.53
2023-04-16T07:07:36.633Z,16.18
2023-04-16T07:10:05.800Z,16.48
2023-04-16T07:12:33.765Z,16.38
2023-04-16T07:15:01.325Z,16.72
2023-04-16T07:17:28.828Z,17.45
2023-04-16T07:19:56.326Z,18.83
2023-04-16T07:22:23.793Z,21.51
2023-04-16T07:24:51.243Z,24.01
2023-04-16T07:27:18.836Z,25.04
2023-04-16T07:29:46.821Z,23.73
2023-04-16T07:32:15.470Z,21.61
2023-04-16T07:34:43.319Z,21.96
2023-04-16T07:37:10.865Z,23.49
2023-04-16T07:39:38.471Z,22.36
2023-04-16T07:42:06.542Z,21.38
2023-04-16T07:44:34.089Z,20.38
2023-04-16T07:47:03.552Z,20.36
2023-04-16T07:49:32.897Z,20.22
2023-04-16T07:52:00.511Z,19.97
2023-04-16T07:54:29.094Z,21.72
2023-04-16T07:56:56.726Z,22.73
2023-04-16T07:59:24.623Z,22.17
2023-04-16T08:01:54.005Z,22.40
2023-04-16T08:04:25.497Z,23.29
2023-04-16T08:06:54.319Z,23.71
2023-04-16T08:09:26.539Z,23.50
2023-04-16T08:11:54.275Z,26.55
2023-04-16T08:14:21.853Z,28.10
2023-04-16T08:16:51.429Z,28.29
2023-04-16T08:19:19.074Z,27.29
2023-04-16T08:21:47.246Z,26.21
2023-04-16T08:24:14.831Z,27.36
2023-04-16T08:26:42.323Z,27.47
2023-04-16T08:29:10.092Z,29.43
2023-04-16T08:31:37.953Z,29.07
2023-04-16T08:34:05.389Z,29.35
2023-04-16T08:36:32.937Z,27.68
2023-04-16T08:39:00.451Z,26.31
2023-04-16T08:41:32.756Z,26.07
2023-04-16T08:44:06.624Z,25.76
2023-04-16T08:46:38.153Z,25.61
2023-04-16T08:49:08.195Z,24.26
2023-04-16T08:51:36.264Z,22.34
2023-04-16T08:54:08.974Z,22.64
2023-04-16T08:56:41.653Z,22.44
2023-04-16T08:59:10.901Z,22.54
2023-04-16T09:01:41.655Z,22.88
2023-04-16T09:04:09.874Z,22.95
2023-04-16T09:06:38.872Z,23.33
2023-04-16T09:09:08.993Z,23.63
2023-04-16T09:11:38.950Z,24.80
2023-04-16T09:14:10.432Z,25.35
2023-04-16T09:16:39.164Z,25.31
2023-04-16T09:19:06.747Z,24.87
2023-04-16T09:21:34.286Z,24.90
2023-04-16T09:24:02.400Z,24.90
2023-04-16T09:26:31.197Z,25.62
2023-04-16T09:28:58.751Z,25.73
2023-04-16T09:31:26.237Z,24.77
2023-04-16T09:34:11.941Z,25.15
2023-04-16T09:36:39.398Z,25.85
2023-04-16T09:39:06.889Z,25.77
2023-04-16T09:41:39.720Z,24.29
2023-04-16T09:44:07.402Z,23.50
2023-04-16T09:46:45.144Z,23.89
2023-04-16T09:49:18.620Z,24.02
2023-04-16T09:51:56.121Z,22.98
2023-04-16T09:54:25.890Z,23.03
2023-04-16T09:56:57.437Z,22.64
2023-04-16T09:59:25.762Z,22.67
2023-04-16T10:02:14.624Z,22.99
2023-04-16T10:04:51.478Z,23.33
2023-04-16T10:07:20.252Z,22.51
2023-04-16T10:09:50.004Z,22.54
2023-04-16T10:12:17.607Z,23.22
2023-04-16T10:14:46.468Z,22.21
2023-04-16T10:17:18.419Z,22.23
2023-04-16T10:19:48.273Z,22.84
2023-04-16T10:22:16.173Z,22.25
2023-04-16T10:24:44.018Z,21.69
2023-04-16T10:27:12.355Z,21.93
2023-04-16T10:29:40.575Z,21.48
2023-04-16T10:32:09.799Z,22.24
2023-04-16T10:34:37.379Z,23.16
2023-04-16T10:37:05.019Z,23.15
2023-04-16T10:39:38.912Z,23.64
2023-04-16T10:42:14.389Z,23.73
2023-04-16T10:44:44.566Z,23.27
2023-04-16T10:47:14.482Z,23.00
2023-04-16T10:49:43.826Z,22.73
2023-04-16T10:52:18.032Z,23.18
2023-04-16T10:54:48.360Z,22.99
2023-04-16T10:57:19.699Z,23.50
2023-04-16T10:59:49.088Z,23.79
2023-04-16T11:02:19.218Z,24.15
2023-04-16T11:04:49.444Z,23.24
2023-04-16T11:07:21.108Z,23.23
2023-04-16T11:10:04.184Z,23.06
2023-04-16T11:12:57.857Z,23.30
2023-04-16T11:15:30.904Z,23.05
2023-04-16T11:17:58.485Z,23.33
2023-04-16T11:20:28.344Z,23.39
2023-04-16T11:22:58.027Z,23.12
2023-04-16T11:25:34.063Z,22.21
2023-04-16T11:28:02.868Z,21.82
2023-04-16T11:30:36.446Z,21.39
2023-04-16T11:33:06.079Z,20.87
2023-04-16T11:35:34.125Z,20.21
2023-04-16T11:38:01.440Z,20.12
2023-04-16T11:40:31.856Z,20.25
2023-04-16T11:43:17.145Z,20.31
2023-04-16T11:46:07.521Z,20.48
2023-04-16T11:48:54.457Z,20.35
2023-04-16T11:51:23.531Z,20.56
2023-04-16T11:53:54.126Z,20.48
2023-04-16T11:56:30.664Z,20.63
2023-04-16T11:59:10.361Z,20.63
2023-04-16T12:01:40.564Z,20.31
2023-04-16T12:04:09.666Z,20.18
2023-04-16T12:06:37.402Z,20.08
2023-04-16T12:09:27.403Z,20.05
2023-04-16T12:11:54.976Z,19.71
2023-04-16T12:14:23.572Z,19.25
2023-04-16T12:16:51.123Z,19.20
2023-04-16T12:19:19.208Z,19.14
2023-04-16T12:21:48.876Z,18.85
2023-04-16T12:24:23.930Z,18.61
2023-04-16T12:27:03.058Z,18.68
2023-04-16T12:29:31.929Z,18.71
2023-04-16T12:31:59.395Z,18.89
2023-04-16T12:34:41.897Z,19.20
2023-04-16T12:37:16.045Z,19.42
2023-04-16T12:39:43.877Z,19.55
2023-04-16T12:42:12.845Z,19.55
2023-04-16T12:44:40.765Z,19.69
2023-04-16T12:47:08.313Z,19.88
2023-04-16T12:49:38.295Z,20.20
2023-04-16T12:52:06.706Z,20.28
2023-04-16T12:54:34.383Z,20.45
2023-04-16T12:57:01.871Z,20.63
2023-04-16T12:59:30.691Z,20.66
2023-04-16T13:01:58.218Z,20.77
2023-04-16T13:04:27.299Z,20.87
2023-04-16T13:06:54.947Z,20.76
2023-04-16T13:09:22.463Z,20.68
2023-04-16T13:11:49.941Z,20.68
2023-04-16T13:14:17.821Z,20.43
2023-04-16T13:16:45.537Z,20.75
2023-04-16T13:19:13.398Z,21.03
2023-04-16T13:21:41.083Z,20.97
2023-04-16T13:24:08.521Z,20.80
2023-04-16T13:26:36.029Z,20.65
2023-04-16T13:29:03.752Z,20.31
2023-04-16T13:31:31.362Z,20.28
2023-04-16T13:33:58.940Z,19.88
2023-04-16T13:36:27.812Z,19.67
2023-04-16T13:38:55.481Z,19.67
2023-04-16T13:41:23.196Z,19.18
2023-04-16T13:43:50.756Z,19.07
2023-04-16T13:46:19.088Z,18.70
2023-04-16T13:48:46.962Z,18.36
2023-04-16T13:51:15.615Z,18.06
2023-04-16T13:53:43.089Z,17.88
2023-04-16T13:56:11.370Z,17.64
2023-04-16T13:58:39.055Z,17.23
2023-04-16T14:01:06.649Z,16.32
2023-04-16T14:03:38.902Z,15.55
2023-04-16T14:06:06.879Z,15.17
2023-04-16T14:08:34.463Z,14.79
2023-04-16T14:11:02.172Z,14.55
2023-04-16T14:13:29.656Z,14.48
2023-04-16T14:15:57.140Z,14.43
2023-04-16T14:18:24.583Z,14.45
2023-04-16T14:20:52.119Z,14.66
2023-04-16T14:23:19.560Z,14.93
2023-04-16T14:25:47.051Z,15.12
2023-04-16T14:28:15.704Z,15.39
2023-04-16T14:30:43.473Z,15.67
2023-04-16T14:33:10.961Z,15.90
2023-04-16T14:35:38.578Z,16.01
2023-04-16T14:38:06.486Z,16.01
2023-04-16T14:40:34.846Z,15.81
2023-04-16T14:43:02.324Z,15.62
2023-04-16T14:45:30.922Z,15.53
2023-04-16T14:47:58.475Z,15.34
2023-04-16T14:50:26.300Z,15.14
2023-04-16T14:52:54.637Z,14.91
2023-04-16T14:55:23.492Z,14.80
2023-04-16T14:57:51.286Z,14.60
2023-04-16T15:00:19.304Z,14.39
2023-04-16T15:02:48.185Z,14.18
2023-04-16T15:05:16.152Z,13.97
2023-04-16T15:07:43.752Z,13.94
2023-04-16T15:10:12.580Z,13.84
2023-04-16T15:12:40.463Z,13.70
2023-04-16T15:15:09.653Z,13.73
2023-04-16T15:17:37.330Z,13.64
2023-04-16T15:20:08.480Z,13.60
2023-04-16T15:22:36.104Z,13.42
2023-04-16T15:25:04.522Z,13.05
2023-04-16T15:27:33.380Z,12.80
2023-04-16T15:30:00.881Z,12.54
2023-04-16T15:32:28.538Z,12.27
2023-04-16T15:34:56.180Z,12.17
2023-04-16T15:37:24.088Z,12.06
2023-04-16T15:39:51.583Z,11.98
2023-04-16T15:42:19.085Z,11.86
2023-04-16T15:44:46.554Z,11.90
2023-04-16T15:47:13.985Z,11.89
2023-04-16T15:49:42.414Z,11.88
2023-04-16T15:52:11.761Z,11.89
2023-04-16T15:54:39.336Z,11.86
2023-04-16T15:57:06.913Z,11.81
2023-04-16T15:59:34.587Z,11.78
2023-04-16T16:02:02.608Z,11.68
2023-04-16T16:04:30.441Z,11.61
2023-04-16T16:06:58.032Z,11.55
2023-04-16T16:09:27.212Z,11.54
2023-04-16T16:11:55.728Z,11.40
2023-04-16T16:14:23.381Z,11.27
2023-04-16T16:16:51.274Z,11.14
2023-04-16T16:19:18.893Z,11.09
2023-04-16T16:21:46.923Z,11.04
2023-04-16T16:24:14.412Z,10.96
2023-04-16T16:26:41.977Z,11.00
2023-04-16T16:29:09.750Z,11.03
2023-04-16T16:31:37.561Z,11.03
2023-04-16T16:34:04.997Z,11.09
2023-04-16T16:36:36.643Z,11.09
2023-04-16T16:39:04.830Z,11.14
2023-04-16T16:41:32.366Z,11.20
2023-04-16T16:44:00.107Z,11.21
2023-04-16T16:46:27.676Z,11.20
2023-04-16T16:48:55.278Z,11.21
2023-04-16T16:51:22.744Z,11.24
2023-04-16T16:53:50.359Z,11.21
2023-04-16T16:56:18.836Z,11.21
2023-04-16T16:58:46.423Z,11.20
2023-04-16T17:01:13.863Z,11.20
2023-04-16T17:03:41.540Z,11.20
2023-04-16T17:06:09.135Z,11.24
2023-04-16T17:08:36.684Z,11.21
2023-04-16T17:11:04.685Z,11.24
2023-04-16T17:13:32.843Z,11.28
2023-04-16T17:16:01.089Z,11.34
2023-04-16T17:18:30.341Z,11.38
2023-04-16T17:20:57.919Z,11.38
2023-04-16T17:23:25.605Z,11.34
2023-04-16T17:25:53.234Z,11.24
2023-04-16T17:28:21.137Z,11.17
2023-04-16T17:30:53.239Z,11.12
2023-04-16T17:33:20.812Z,11.10
2023-04-16T17:35:48.380Z,11.07
2023-04-16T17:38:15.963Z,11.03
2023-04-16T17:40:43.510Z,10.97
2023-04-16T17:43:10.999Z,10.97
2023-04-16T17:45:38.632Z,10.95
2023-04-16T17:48:06.549Z,10.85
2023-04-16T17:50:34.162Z,10.76
2023-04-16T17:53:03.862Z,10.75
2023-04-16T17:55:31.862Z,10.72
2023-04-16T17:58:00.398Z,10.72
2023-04-16T18:00:27.843Z,10.75
2023-04-16T18:02:56.749Z,10.72
2023-04-16T18:05:24.669Z,10.72
2023-04-16T18:07:54.644Z,10.72
2023-04-16T18:10:22.285Z,10.75
2023-04-16T18:12:49.766Z,10.73
2023-04-16T18:15:17.404Z,10.76
2023-04-16T18:17:44.840Z,10.79
2023-04-16T18:20:12.699Z,10.82
2023-04-16T18:22:40.378Z,10.82
2023-04-16T18:25:08.378Z,10.82
2023-04-16T18:27:36.943Z,10.86
2023-04-16T18:30:06.012Z,10.88
2023-04-16T18:32:33.772Z,10.88
2023-04-16T18:35:01.569Z,10.88
2023-04-16T18:37:29.020Z,10.86
2023-04-16T18:39:58.046Z,10.85
2023-04-16T18:42:29.553Z,10.85
2023-04-16T18:44:57.209Z,10.85
2023-04-16T18:47:25.540Z,10.85
2023-04-16T18:49:53.071Z,10.85
2023-04-16T18:52:20.539Z,10.85
2023-04-16T18:54:48.048Z,10.85
2023-04-16T18:57:16.829Z,10.82
2023-04-16T18:59:44.423Z,10.82
2023-04-16T19:02:13.110Z,10.83
2023-04-16T19:04:40.802Z,10.83
2023-04-16T19:07:08.851Z,10.83
2023-04-16T19:09:36.389Z,10.83
2023-04-16T19:12:05.583Z,10.77
2023-04-16T19:14:33.071Z,10.73
2023-04-16T19:17:00.529Z,10.72
2023-04-16T19:19:27.965Z,10.72
2023-04-16T19:21:55.618Z,10.76
2023-04-16T19:24:23.605Z,10.76
2023-04-16T19:26:52.501Z,10.73
2023-04-16T19:29:20.034Z,10.72
2023-04-16T19:31:47.711Z,10.65
2023-04-16T19:34:15.822Z,10.62
2023-04-16T19:36:44.481Z,10.68
2023-04-16T19:39:12.303Z,10.61
2023-04-16T19:41:39.890Z,10.62
2023-04-16T19:44:07.432Z,10.61
2023-04-16T19:46:34.906Z,10.59
2023-04-16T19:49:03.878Z,10.58
2023-04-16T19:51:31.292Z,10.55
2023-04-16T19:53:59.126Z,10.58
2023-04-16T19:56:27.184Z,10.58
2023-04-16T19:58:54.668Z,10.59
2023-04-16T20:01:25.099Z,10.58
2023-04-16T20:03:53.154Z,10.56
2023-04-16T20:06:20.711Z,10.58
2023-04-16T20:08:48.158Z,10.59
2023-04-16T20:11:15.732Z,10.62
2023-04-16T20:13:46.390Z,10.62
2023-04-16T20:16:14.147Z,10.64
2023-04-16T20:18:42.596Z,10.61
2023-04-16T20:21:11.642Z,10.64
2023-04-16T20:23:38.991Z,10.59
2023-04-16T20:26:07.032Z,10.58
2023-04-16T20:28:34.684Z,10.51
2023-04-16T20:31:02.170Z,10.48
2023-04-16T20:33:29.633Z,10.44
2023-04-16T20:35:58.475Z,10.44
2023-04-16T20:38:29.623Z,10.41
2023-04-16T20:41:20.409Z,10.40
2023-04-16T20:43:50.287Z,10.38
2023-04-16T20:46:17.875Z,10.38
2023-04-16T20:48:45.402Z,10.38
2023-04-16T20:51:13.054Z,10.40
2023-04-16T20:53:40.761Z,10.37
2023-04-16T20:56:10.140Z,10.41
2023-04-16T20:58:37.692Z,10.35
2023-04-16T21:01:05.968Z,10.35
2023-04-16T21:03:33.863Z,10.37
2023-04-16T21:06:01.901Z,10.38
2023-04-16T21:08:29.901Z,10.40
2023-04-16T21:10:57.481Z,10.38
2023-04-16T21:13:25.022Z,10.37
2023-04-16T21:15:52.969Z,10.37
2023-04-16T21:18:21.575Z,10.37
2023-04-16T21:20:49.053Z,10.35
2023-04-16T21:23:16.594Z,10.37
2023-04-16T21:25:45.237Z,10.37
2023-04-16T21:28:12.797Z,10.35
2023-04-16T21:30:40.580Z,10.33
2023-04-16T21:33:08.747Z,10.35
2023-04-16T21:35:36.211Z,10.33
2023-04-16T21:38:03.753Z,10.33
2023-04-16T21:40:31.185Z,10.31
2023-04-16T21:42:58.629Z,10.31
2023-04-16T21:45:26.061Z,10.30
2023-04-16T21:47:53.584Z,10.30
2023-04-16T21:50:21.063Z,10.27
2023-04-16T21:52:49.204Z,10.24
2023-04-16T21:55:16.764Z,10.24
2023-04-16T21:57:44.346Z,10.27
2023-04-16T22:00:13.891Z,10.24
2023-04-16T22:02:42.730Z,10.27
2023-04-16T22:05:11.639Z,10.27
2023-04-16T22:07:39.331Z,10.27
2023-04-16T22:10:08.807Z,10.27
2023-04-16T22:12:39.811Z,10.27
2023-04-16T22:15:09.070Z,10.30
2023-04-16T22:17:38.140Z,10.28
2023-04-16T22:20:12.446Z,10.28
2023-04-16T22:22:41.597Z,10.25
2023-04-16T22:25:10.032Z,10.28
2023-04-16T22:27:37.842Z,10.28
2023-04-16T22:30:08.369Z,10.30
2023-04-16T22:32:36.063Z,10.33
2023-04-16T22:35:03.923Z,10.30
2023-04-16T22:37:31.468Z,10.31
2023-04-16T22:39:58.923Z,10.33
2023-04-16T22:42:27.076Z,10.27
2023-04-16T22:44:54.562Z,10.30
2023-04-16T22:47:22.659Z,10.31
2023-04-16T22:49:50.288Z,10.31
2023-04-16T22:52:17.712Z,10.30
2023-04-16T22:54:45.185Z,10.30
2023-04-16T22:57:13.233Z,10.31
2023-04-16T22:59:40.819Z,10.33
2023-04-16T23:02:08.496Z,10.35
2023-04-16T23:04:36.068Z,10.35
2023-04-16T23:07:03.552Z,10.35
2023-04-16T23:09:31.463Z,10.37
2023-04-16T23:11:59.209Z,10.37
2023-04-16T23:14:26.796Z,10.38
2023-04-16T23:16:54.258Z,10.37
2023-04-16T23:19:21.782Z,10.37
2023-04-16T23:21:49.276Z,10.34
2023-04-16T23:24:17.274Z,10.30
2023-04-16T23:26:44.789Z,10.25
2023-04-16T23:29:12.504Z,10.30
2023-04-16T23:31:40.286Z,10.27
2023-04-16T23:34:07.853Z,10.25
2023-04-16T23:36:35.328Z,10.24
2023-04-16T23:39:04.349Z,10.22
2023-04-16T23:41:31.964Z,10.24
2023-04-16T23:43:59.369Z,10.25
2023-04-16T23:46:26.930Z,10.27
2023-04-16T23:48:55.423Z,10.25
2023-04-16T23:51:23.042Z,10.22
2023-04-16T23:53:50.520Z,10.25
2023-04-16T23:56:18.411Z,10.22
2023-04-16T23:58:45.905Z,10.21
